Aviation Digital Data Service (ADDS)

Output produced by METARs form (1820 UTC 19 April 2019)
found at http://www.aviationweather.gov/metar/data/
 
Forecast for: NLWF (FUTUNA ISL/MAOPO, FJ)
Text: TAF NLWF 191700Z 1918/2018 10009KT 9999 SCT020 BKN040
Forecast period: 1800 UTC 19 April 2019 to 1800 UTC 20 April 2019
Forecast type: FROM: standard forecast or significant change
Winds: from the E (100 degrees) at 10 MPH (9 knots; 4.6 m/s)
Visibility: 6 or more miles 10+ km)
Ceiling: 4000 feet AGL
Clouds: scattered clouds at 2000 feet AGL
broken clouds at 4000 feet AGL
Weather: no significant weather forecast for this period
Text: TEMPO 1918/2018 4500 SHRA BKN014 FEW018TCU
Forecast period: 1800 UTC 19 April 2019 to 1800 UTC 20 April 2019
Forecast type: TEMPORARY: The following changes expected for less than half the time period
Visibility: 2.80 miles (4.51 km)
Ceiling: 1400 feet AGL
Clouds: broken clouds at 1400 feet AGL
few clouds at 1800 feet AGL
Weather: SHRA  (rain showers)
Text: PROB40
Forecast period: 1800 to 2200 UTC 19 April 2019
Forecast type: TEMPORARY: The following changes expected for less than half the time period
Visibility: 1.55 miles (2.49 km)
Ceiling: 1200 feet AGL
Clouds: broken clouds at 1200 feet AGL
few clouds at 1800 feet AGL
Weather: SHRA  (rain showers)